Time;durP1;ratioP1;P1;durP2;ratioP2;P2;SDS_P1;SDS_P2;PMS_P1;PMS_P2;Temp;Humidity;BMP_temperature;BMP_pressure;BME280_temperature;BME280_humidity;BME280_pressure;Samples;Min_cycle;Max_cycle;Signal;HPM_P1;HPM_P2
2024/03/05 00:04:58;;;;;;;1999.90;999.90;;;;;;;8.88;100.00;93935.44;10349396;28;20050;-81
2024/03/05 00:09:58;;;;;;;1999.90;999.90;;;;;;;8.83;100.00;93922.09;10347722;28;20480;-82
2024/03/05 00:14:58;;;;;;;1999.90;999.90;;;;;;;8.92;100.00;93915.03;10346329;28;20281;-76
2024/03/05 00:19:58;;;;;;;1999.90;999.90;;;;;;;9.01;100.00;93912.53;10330936;28;20388;-78
2024/03/05 00:24:59;;;;;;;1999.90;999.90;;;;;;;9.17;100.00;93905.16;10345136;28;20272;-79
2024/03/05 00:29:59;;;;;;;1999.90;999.90;;;;;;;9.30;100.00;93898.31;10345774;28;20033;-84
2024/03/05 00:35:00;;;;;;;1999.90;999.90;;;;;;;9.30;100.00;93892.94;10347989;28;20168;-80
2024/03/05 00:40:00;;;;;;;1999.90;999.90;;;;;;;9.40;100.00;93896.31;10346630;28;20095;-78
2024/03/05 00:45:01;;;;;;;1999.90;999.90;;;;;;;9.43;100.00;93896.81;10345970;28;20544;-78
2024/03/05 00:50:04;;;;;;;1999.90;999.90;;;;;;;9.39;100.00;93886.66;10345021;28;20411;-84
2024/03/05 00:55:07;;;;;;;1999.90;999.90;;;;;;;9.46;100.00;93882.81;10346484;28;20032;-76
2024/03/05 01:00:08;;;;;;;1999.90;999.90;;;;;;;9.41;100.00;93872.97;10355078;28;20041;-77
2024/03/05 01:05:11;;;;;;;1999.90;999.90;;;;;;;9.40;100.00;93860.63;10367180;28;20401;-78
2024/03/05 01:10:12;;;;;;;1999.90;999.90;;;;;;;9.41;100.00;93856.88;10372072;28;20017;-77
2024/03/05 01:15:12;;;;;;;1999.90;999.90;;;;;;;9.43;100.00;93862.75;10369130;28;20022;-76
2024/03/05 01:20:18;;;;;;;1999.90;999.90;;;;;;;9.44;100.00;93863.56;10376119;28;20289;-86
2024/03/05 01:25:18;;;;;;;1999.90;999.90;;;;;;;9.38;100.00;93852.88;10352685;28;20044;-80
2024/03/05 01:30:20;;;;;;;1999.90;999.90;;;;;;;9.33;100.00;93854.81;10345790;28;20028;-80
2024/03/05 01:35:21;;;;;;;1999.90;999.90;;;;;;;9.27;100.00;93856.78;10345020;28;20265;-80
2024/03/05 01:40:22;;;;;;;1999.90;999.90;;;;;;;9.25;100.00;93837.47;10346525;28;20424;-79
2024/03/05 01:45:23;;;;;;;1999.90;999.90;;;;;;;9.15;100.00;93827.69;10345641;28;20040;-79
2024/03/05 01:50:23;;;;;;;1999.90;999.90;;;;;;;9.18;100.00;93820.94;10345430;28;20022;-83
2024/03/05 01:55:24;;;;;;;1999.90;999.90;;;;;;;9.04;100.00;93827.03;10343142;28;20052;-77
2024/03/05 02:00:26;;;;;;;1999.90;999.90;;;;;;;9.15;100.00;93825.00;10343048;28;20033;-77
2024/03/05 02:05:26;;;;;;;1999.90;999.90;;;;;;;9.10;100.00;93825.06;10343621;28;20061;-78
2024/03/05 02:10:27;;;;;;;1999.90;999.90;;;;;;;9.01;100.00;93821.41;10344081;28;20026;-79
2024/03/05 02:15:27;;;;;;;1999.90;999.90;;;;;;;9.00;100.00;93823.31;10344242;28;20029;-79
2024/03/05 02:20:28;;;;;;;1999.90;999.90;;;;;;;8.94;100.00;93832.47;10343559;28;20030;-82
2024/03/05 02:25:34;;;;;;;1999.90;999.90;;;;;;;8.99;100.00;93824.38;10363132;28;20068;-82
2024/03/05 02:30:35;;;;;;;1999.90;999.90;;;;;;;8.95;100.00;93827.94;10342683;28;20079;-79
2024/03/05 02:35:35;;;;;;;1999.90;999.90;;;;;;;8.97;100.00;93833.78;10352458;28;20057;-85
2024/03/05 02:40:36;;;;;;;1999.90;999.90;;;;;;;9.07;100.00;93825.66;10343496;28;20483;-83
2024/03/05 02:45:36;;;;;;;1999.90;999.90;;;;;;;9.04;100.00;93827.03;10343915;28;20276;-80
2024/03/05 02:50:36;;;;;;;1999.90;999.90;;;;;;;8.97;100.00;93825.75;10346603;28;20034;-83
2024/03/05 02:55:39;;;;;;;1999.90;999.90;;;;;;;9.00;100.00;93834.03;10350129;28;20048;-79
2024/03/05 03:00:40;;;;;;;1999.90;999.90;;;;;;;8.79;100.00;93843.34;10366242;28;20033;-81
2024/03/05 03:05:41;;;;;;;1999.90;999.90;;;;;;;8.71;100.00;93840.22;10352254;28;20528;-82
2024/03/05 03:10:41;;;;;;;1999.90;999.90;;;;;;;8.48;100.00;93846.31;10378413;28;20060;-84
2024/03/05 03:15:43;;;;;;;1999.90;999.90;;;;;;;8.44;100.00;93837.22;10370198;28;20026;-79
2024/03/05 03:20:43;;;;;;;1999.90;999.90;;;;;;;8.50;100.00;93842.28;10366328;28;20030;-75
2024/03/05 03:25:48;;;;;;;1999.90;999.90;;;;;;;8.37;100.00;93841.03;10380061;28;20041;-75
2024/03/05 03:30:48;;;;;;;1999.90;999.90;;;;;;;8.32;100.00;93834.94;10375844;28;20038;-77
2024/03/05 03:35:49;;;;;;;1999.90;999.90;;;;;;;8.39;100.00;93832.72;10352422;28;20045;-80
2024/03/05 03:40:51;;;;;;;1999.90;999.90;;;;;;;8.45;100.00;93828.16;10353526;28;20057;-78
2024/03/05 03:45:52;;;;;;;1999.90;999.90;;;;;;;8.63;100.00;93826.66;10350749;28;20100;-79
2024/03/05 03:51:02;;;;;;;1999.90;999.90;;;;;;;8.66;100.00;93828.75;10350125;28;20032;-83
2024/03/05 03:56:03;;;;;;;1999.90;999.90;;;;;;;8.51;100.00;93825.16;10351143;28;20052;-82
2024/03/05 04:01:07;;;;;;;1999.90;999.90;;;;;;;8.61;100.00;93820.75;10350108;28;20034;-79
2024/03/05 04:06:08;;;;;;;1999.90;999.90;;;;;;;8.65;100.00;93827.16;10349209;28;20410;-86
2024/03/05 04:11:09;;;;;;;1999.90;999.90;;;;;;;8.51;100.00;93821.66;10349366;28;20053;-77
2024/03/05 04:16:10;;;;;;;1999.90;999.90;;;;;;;8.62;100.00;93825.03;10349384;28;20044;-85
2024/03/05 04:21:11;;;;;;;1999.90;999.90;;;;;;;8.49;100.00;93815.81;10362363;28;20087;-78
2024/03/05 04:26:13;;;;;;;1999.90;999.90;;;;;;;8.55;100.00;93815.47;10344779;28;20029;-83
2024/03/05 04:31:20;;;;;;;1999.90;999.90;;;;;;;8.35;100.00;93824.44;10344707;28;20030;-85
2024/03/05 04:36:20;;;;;;;1999.90;999.90;;;;;;;8.39;100.00;93830.06;10365214;28;20378;-83
2024/03/05 04:41:20;;;;;;;1999.90;999.90;;;;;;;8.55;100.00;93825.38;10347637;28;20026;-81
2024/03/05 04:46:21;;;;;;;1999.90;999.90;;;;;;;8.42;100.00;93826.81;10348815;28;20269;-83
2024/03/05 04:51:22;;;;;;;1999.90;999.90;;;;;;;8.60;100.00;93824.53;10363277;28;20080;-80
2024/03/05 04:56:23;;;;;;;1999.90;999.90;;;;;;;8.46;100.00;93835.91;10345576;28;20034;-80
2024/03/05 05:01:23;;;;;;;1999.90;999.90;;;;;;;8.73;100.00;93834.56;10343152;28;20440;-80
2024/03/05 05:06:25;;;;;;;1999.90;999.90;;;;;;;8.67;100.00;93831.16;10340877;28;20687;-78
2024/03/05 05:11:25;;;;;;;1999.90;999.90;;;;;;;8.66;100.00;93824.19;10360206;28;20033;-80
2024/03/05 05:16:26;;;;;;;1999.90;999.90;;;;;;;8.84;100.00;93833.38;10341420;28;20381;-75
2024/03/05 05:21:27;;;;;;;1999.90;999.90;;;;;;;8.97;100.00;93831.94;10340619;28;20056;-79
2024/03/05 05:26:27;;;;;;;1999.90;999.90;;;;;;;9.07;100.00;93834.47;10328752;28;20742;-71
2024/03/05 05:31:27;;;;;;;1999.90;999.90;;;;;;;9.15;100.00;93834.94;10315602;28;20026;-73
2024/03/05 05:36:29;;;;;;;1999.90;999.90;;;;;;;9.12;100.00;93838.19;10319106;28;20085;-77
2024/03/05 05:41:29;;;;;;;1999.90;999.90;;;;;;;9.00;100.00;93839.38;10318766;28;20048;-80
2024/03/05 05:46:32;;;;;;;1999.90;999.90;;;;;;;8.92;100.00;93840.00;10318255;28;20033;-80
2024/03/05 05:51:33;;;;;;;1999.90;999.90;;;;;;;8.98;100.00;93838.06;10318425;28;20405;-79
2024/03/05 05:56:33;;;;;;;1999.90;999.90;;;;;;;9.14;100.00;93836.00;10302488;28;20041;-78
2024/03/05 06:01:34;;;;;;;1999.90;999.90;;;;;;;9.30;100.00;93832.06;10319336;28;20281;-81
2024/03/05 06:06:36;;;;;;;1999.90;999.90;;;;;;;9.64;100.00;93838.34;10317774;28;20046;-74
2024/03/05 06:11:37;;;;;;;1999.90;999.90;;;;;;;9.86;100.00;93838.56;10319526;28;20124;-77
2024/03/05 06:16:38;;;;;;;1999.90;999.90;;;;;;;9.75;100.00;93840.63;10318121;28;20513;-78
2024/03/05 06:21:39;;;;;;;1999.90;999.90;;;;;;;10.26;100.00;93835.56;10319353;28;20026;-78
2024/03/05 06:26:39;;;;;;;1999.90;999.90;;;;;;;10.96;100.00;93835.75;10309799;28;20485;-82
2024/03/05 06:31:39;;;;;;;1999.90;999.90;;;;;;;11.24;100.00;93845.41;10309895;28;20305;-81
2024/03/05 06:36:41;;;;;;;1999.90;999.90;;;;;;;11.09;100.00;93845.72;10309651;28;20033;-78
2024/03/05 06:41:41;;;;;;;1999.90;999.90;;;;;;;11.23;100.00;93849.22;10327558;28;20289;-78
2024/03/05 06:46:42;;;;;;;1999.90;999.90;;;;;;;11.77;100.00;93832.50;10308701;28;20022;-80
2024/03/05 06:51:52;;;;;;;1999.90;999.90;;;;;;;11.59;100.00;93845.00;10324743;28;20018;-79
2024/03/05 06:56:53;;;;;;;1999.90;999.90;;;;;;;11.19;100.00;93853.59;10325236;28;20030;-74
2024/03/05 07:01:55;;;;;;;1999.90;999.90;;;;;;;11.00;100.00;93855.56;10308578;28;20023;-78
2024/03/05 07:06:56;;;;;;;1999.90;999.90;;;;;;;11.05;100.00;93856.28;10299479;28;20401;-77
2024/03/05 07:11:57;;;;;;;1999.90;999.90;;;;;;;11.30;100.00;93854.19;10285573;28;20527;-79
2024/03/05 07:16:57;;;;;;;1999.90;999.90;;;;;;;11.34;100.00;93857.06;10283733;28;20121;-74
2024/03/05 07:21:57;;;;;;;1999.90;999.90;;;;;;;11.46;100.00;93852.78;10300002;28;20065;-78
2024/03/05 07:26:58;;;;;;;1999.90;999.90;;;;;;;11.34;100.00;93867.84;10283983;28;20034;-78
2024/03/05 07:31:58;;;;;;;1999.90;999.90;;;;;;;11.07;100.00;93870.22;10283621;28;20125;-79
2024/03/05 07:37:00;;;;;;;1999.90;999.90;;;;;;;10.81;100.00;93885.22;10298797;28;20401;-79
2024/03/05 07:42:00;;;;;;;1999.90;999.90;;;;;;;10.72;100.00;93877.81;10284117;28;20125;-74
2024/03/05 07:47:00;;;;;;;1999.90;999.90;;;;;;;10.70;100.00;93877.31;10283413;28;20121;-79
2024/03/05 07:52:01;;;;;;;1999.90;999.90;;;;;;;10.95;100.00;93880.66;10299171;28;20193;-78
2024/03/05 07:57:01;;;;;;;1999.90;999.90;;;;;;;11.03;100.00;93884.56;10282282;28;20784;-78
2024/03/05 08:02:01;;;;;;;1999.90;999.90;;;;;;;10.78;100.00;93886.59;10282835;28;20113;-79
2024/03/05 08:07:02;;;;;;;1999.90;999.90;;;;;;;10.68;100.00;93898.31;10288115;28;20051;-80
2024/03/05 08:12:03;;;;;;;1999.90;999.90;;;;;;;10.49;100.00;93890.28;10288230;28;20299;-79
2024/03/05 08:17:08;;;;;;;1999.90;999.90;;;;;;;10.92;100.00;93883.94;10283576;28;20057;-78
2024/03/05 08:22:08;;;;;;;1999.90;999.90;;;;;;;11.14;100.00;93883.28;10281923;28;20242;-77
2024/03/05 08:27:09;;;;;;;1999.90;999.90;;;;;;;11.03;100.00;93888.03;10298379;28;20027;-74
2024/03/05 08:32:10;;;;;;;1999.90;999.90;;;;;;;11.02;100.00;93889.13;10281725;28;20110;-80
2024/03/05 08:37:11;;;;;;;1999.90;999.90;;;;;;;11.14;100.00;93885.97;10281766;28;20092;-77
2024/03/05 08:42:12;;;;;;;1999.90;999.90;;;;;;;11.24;100.00;93887.66;10280914;28;20034;-75
2024/03/05 08:47:13;;;;;;;1999.90;999.90;;;;;;;11.10;100.00;93890.34;10296496;28;20027;-78
2024/03/05 08:52:13;;;;;;;1999.90;999.90;;;;;;;11.52;100.00;93887.66;10297178;28;20026;-74
2024/03/05 08:57:13;;;;;;;1999.90;999.90;;;;;;;11.18;100.00;93899.63;10281999;28;20034;-79
2024/03/05 09:02:14;;;;;;;1999.90;999.90;;;;;;;11.32;100.00;93894.25;10296165;28;20290;-82
2024/03/05 09:07:14;;;;;;;1999.90;999.90;;;;;;;11.71;100.00;93888.34;10285856;28;20505;-74
2024/03/05 09:12:15;;;;;;;1999.90;999.90;;;;;;;11.94;100.00;93885.75;10279318;28;20023;-81
2024/03/05 09:17:15;;;;;;;1999.90;999.90;;;;;;;12.39;100.00;93883.13;10295744;28;20089;-75
2024/03/05 09:22:16;;;;;;;1999.90;999.90;;;;;;;12.77;100.00;93892.75;10279548;28;20026;-78
2024/03/05 09:27:17;;;;;;;1999.90;999.90;;;;;;;12.56;100.00;93881.66;10280315;28;20034;-75
2024/03/05 09:32:18;;;;;;;1999.90;999.90;;;;;;;12.66;100.00;93876.03;10263733;28;20030;-78
2024/03/05 09:37:18;;;;;;;1999.90;999.90;;;;;;;12.93;100.00;93869.66;10280373;28;20361;-78
2024/03/05 09:42:18;;;;;;;1999.90;999.90;;;;;;;12.87;100.00;93873.63;10295573;28;20050;-77
2024/03/05 09:47:23;;;;;;;1999.90;999.90;;;;;;;12.52;100.00;93870.69;10279830;28;20054;-76
2024/03/05 09:52:24;;;;;;;1999.90;999.90;;;;;;;12.65;100.00;93869.81;10295198;28;20034;-78
2024/03/05 09:57:26;;;;;;;1999.90;999.90;;;;;;;13.17;100.00;93865.81;10294241;28;20520;-75
2024/03/05 10:02:27;;;;;;;1999.90;999.90;;;;;;;13.36;100.00;93865.63;10279875;28;20293;-74
2024/03/05 10:07:27;;;;;;;1999.90;999.90;;;;;;;13.71;100.00;93879.22;10278236;28;20474;-75
2024/03/05 10:12:28;;;;;;;1999.90;999.90;;;;;;;13.34;100.00;93870.53;10294085;28;20034;-78
2024/03/05 10:17:43;;;;;;;1999.90;999.90;;;;;;;14.34;100.00;93874.41;10279698;28;20173;-75
2024/03/05 10:22:51;;;;;;;1999.90;999.90;;;;;;;15.09;95.19;93872.59;10278056;28;20041;-74
2024/03/05 10:27:52;;;;;;;1999.90;999.90;;;;;;;16.75;76.95;93864.28;10279015;28;20099;-81
2024/03/05 10:32:57;;;;;;;1999.90;999.90;;;;;;;17.62;63.80;93861.00;10294822;28;20027;-75
2024/03/05 10:38:09;;;;;;;1999.90;999.90;;;;;;;17.13;65.40;93861.72;10293625;28;20041;-74
2024/03/05 10:43:09;;;;;;;1999.90;999.90;;;;;;;16.41;66.83;93865.38;10277963;28;20485;-74
2024/03/05 10:48:12;;;;;;;1999.90;999.90;;;;;;;15.61;74.16;93874.31;10293373;28;20027;-74
2024/03/05 10:53:13;;;;;;;1999.90;999.90;;;;;;;15.15;80.39;93872.09;10277314;28;20031;-79
2024/03/05 10:58:28;;;;;;;1999.90;999.90;;;;;;;15.88;73.88;93871.16;10277882;28;20109;-80
2024/03/05 11:03:50;;;;;;;1999.90;999.90;;;;;;;15.28;72.29;93877.59;10294138;28;20130;-77
2024/03/05 11:08:50;;;;;;;1999.90;999.90;;;;;;;15.87;68.25;93868.78;10301269;28;20042;-77
2024/03/05 11:13:53;;;;;;;1999.90;999.90;;;;;;;16.09;68.45;93872.31;10309262;28;20052;-75
2024/03/05 11:18:53;;;;;;;1999.90;999.90;;;;;;;15.97;70.74;93876.53;10307837;28;20449;-75
2024/03/05 11:29:14;;;;;;;1999.90;999.90;;;;;;;15.20;83.17;93868.41;10365730;28;20050;-77
2024/03/05 11:34:17;;;;;;;1999.90;999.90;;;;;;;16.61;68.76;93863.78;10366034;28;20036;-74
2024/03/05 11:39:17;;;;;;;1999.90;999.90;;;;;;;19.64;54.32;93860.09;10363707;28;20033;-78
2024/03/05 11:44:41;;;;;;;1999.90;999.90;;;;;;;19.78;49.19;93858.88;10364881;28;20033;-75
2024/03/05 11:49:41;;;;;;;1999.90;999.90;;;;;;;18.48;54.91;93860.91;10366312;28;20580;-74
2024/03/05 11:54:42;;;;;;;1999.90;999.90;;;;;;;17.95;54.66;93865.56;10348556;28;20030;-75
2024/03/05 11:59:42;;;;;;;1999.90;999.90;;;;;;;16.83;61.21;93873.47;10348651;28;20343;-78
2024/03/05 12:04:44;;;;;;;1999.90;999.90;;;;;;;16.39;68.49;93873.81;10365522;28;20029;-80
2024/03/05 12:09:44;;;;;;;1999.90;999.90;;;;;;;16.11;70.86;93876.28;10365545;28;20352;-76
2024/03/05 12:14:55;;;;;;;1999.90;999.90;;;;;;;15.78;71.39;93882.34;10364899;28;20400;-79
2024/03/05 12:19:57;;;;;;;1999.90;999.90;;;;;;;15.00;78.92;93878.81;10363158;28;20308;-73
2024/03/05 12:24:57;;;;;;;1999.90;999.90;;;;;;;14.44;85.85;93888.69;10362750;28;20464;-75
2024/03/05 12:30:01;;;;;;;1999.90;999.90;;;;;;;13.82;93.18;93904.03;10363152;28;20101;-75
2024/03/05 12:35:04;;;;;;;1999.90;999.90;;;;;;;13.64;95.37;93903.19;10362197;28;20051;-76
2024/03/05 12:40:08;;;;;;;1999.90;999.90;;;;;;;13.66;96.21;93898.25;10364432;28;20109;-75
2024/03/05 12:45:09;;;;;;;1999.90;999.90;;;;;;;13.20;100.00;93900.31;10362931;28;20033;-76
2024/03/05 12:50:10;;;;;;;1999.90;999.90;;;;;;;13.20;100.00;93902.19;10362990;28;20017;-74
2024/03/05 12:55:11;;;;;;;1999.90;999.90;;;;;;;13.06;100.00;93910.34;10361732;28;20026;-75
2024/03/05 13:00:12;;;;;;;1999.90;999.90;;;;;;;12.87;100.00;93916.75;10361484;28;20086;-75
2024/03/05 13:05:13;;;;;;;1999.90;999.90;;;;;;;12.62;100.00;93934.34;10361845;28;20669;-75
2024/03/05 13:10:13;;;;;;;1999.90;999.90;;;;;;;12.47;100.00;93933.63;10344024;28;20021;-74
2024/03/05 13:15:14;;;;;;;1999.90;999.90;;;;;;;12.23;100.00;93957.31;10360794;28;20389;-79
2024/03/05 13:20:20;;;;;;;1999.90;999.90;;;;;;;11.51;100.00;93956.03;10361646;28;20488;-75
2024/03/05 13:25:22;;;;;;;1999.90;999.90;;;;;;;10.88;100.00;93966.25;10361564;28;20056;-81
2024/03/05 13:30:26;;;;;;;1999.90;999.90;;;;;;;10.41;100.00;93969.66;10360186;28;20105;-78
2024/03/05 13:35:26;;;;;;;1999.90;999.90;;;;;;;9.81;100.00;93999.66;10359240;28;20029;-77
2024/03/05 13:40:27;;;;;;;1999.90;999.90;;;;;;;9.62;100.00;93986.19;10343291;28;20029;-75
2024/03/05 13:45:27;;;;;;;1999.90;999.90;;;;;;;9.64;100.00;93984.03;10359747;28;20121;-80
2024/03/05 13:50:28;;;;;;;1999.90;999.90;;;;;;;9.49;100.00;93998.41;10359036;28;20346;-73
2024/03/05 13:55:28;;;;;;;1999.90;999.90;;;;;;;9.41;100.00;94005.16;10358520;28;20033;-77
2024/03/05 14:00:31;;;;;;;1999.90;999.90;;;;;;;9.55;100.00;94015.25;10359299;28;20069;-77
2024/03/05 14:05:32;;;;;;;1999.90;999.90;;;;;;;9.61;100.00;94014.09;10359504;28;20018;-80
2024/03/05 14:10:33;;;;;;;1999.90;999.90;;;;;;;9.35;100.00;94035.00;10359973;28;20026;-74
2024/03/05 14:15:34;;;;;;;1999.90;999.90;;;;;;;9.12;100.00;94031.19;10343161;28;20088;-76
2024/03/05 14:20:35;;;;;;;1999.90;999.90;;;;;;;9.35;100.00;94038.50;10358294;28;20026;-75
2024/03/05 14:25:35;;;;;;;1999.90;999.90;;;;;;;9.26;100.00;94045.53;10358326;28;20297;-76
2024/03/05 14:30:36;;;;;;;1999.90;999.90;;;;;;;9.13;100.00;94060.41;10358395;28;20022;-74
2024/03/05 14:35:36;;;;;;;1999.90;999.90;;;;;;;9.13;100.00;94064.97;10358527;28;20791;-76
2024/03/05 14:40:37;;;;;;;1999.90;999.90;;;;;;;9.02;100.00;94080.31;10359672;28;20348;-80
2024/03/05 14:45:40;;;;;;;1999.90;999.90;;;;;;;9.11;100.00;94077.84;10345368;28;20025;-81
2024/03/05 14:50:40;;;;;;;1999.90;999.90;;;;;;;9.18;100.00;94079.13;10367239;28;20037;-75
2024/03/05 14:55:41;;;;;;;1999.90;999.90;;;;;;;9.28;100.00;94088.97;10349339;28;20132;-75
2024/03/05 15:00:42;;;;;;;1999.90;999.90;;;;;;;9.52;100.00;94088.22;10365483;28;20030;-76
2024/03/05 15:05:43;;;;;;;1999.90;999.90;;;;;;;9.50;100.00;94090.38;10349415;28;20272;-79
2024/03/05 15:10:43;;;;;;;1999.90;999.90;;;;;;;9.48;100.00;94103.28;10366324;28;20018;-77
2024/03/05 15:15:43;;;;;;;1999.90;999.90;;;;;;;9.62;100.00;94109.59;10365417;28;20033;-73
2024/03/05 15:20:45;;;;;;;1999.90;999.90;;;;;;;9.71;100.00;94121.31;10348441;28;20123;-77
2024/03/05 15:25:46;;;;;;;1999.90;999.90;;;;;;;9.88;100.00;94128.94;10347891;28;20131;-77
2024/03/05 15:30:46;;;;;;;1999.90;999.90;;;;;;;9.92;100.00;94126.47;10365546;28;20118;-76
2024/03/05 15:35:46;;;;;;;1999.90;999.90;;;;;;;10.03;100.00;94137.91;10348355;28;20022;-76
2024/03/05 15:40:48;;;;;;;1999.90;999.90;;;;;;;9.92;100.00;94142.56;10362972;28;20030;-74
2024/03/05 15:45:51;;;;;;;1999.90;999.90;;;;;;;10.02;100.00;94150.56;10363817;28;20405;-76
2024/03/05 15:50:52;;;;;;;1999.90;999.90;;;;;;;10.06;100.00;94161.50;10364606;28;20026;-75
2024/03/05 15:56:01;;;;;;;1999.90;999.90;;;;;;;10.00;100.00;94171.50;10364142;28;20021;-79
2024/03/05 16:01:03;;;;;;;1999.90;999.90;;;;;;;10.09;100.00;94177.06;10364162;28;20029;-77
2024/03/05 16:06:05;;;;;;;1999.90;999.90;;;;;;;9.94;100.00;94185.28;10366449;28;20026;-75
2024/03/05 16:11:07;;;;;;;1999.90;999.90;;;;;;;9.72;100.00;94192.66;10346941;28;20022;-83
2024/03/05 16:16:07;;;;;;;1999.90;999.90;;;;;;;9.62;100.00;94200.81;10361844;28;20283;-80
2024/03/05 16:21:08;;;;;;;1999.90;999.90;;;;;;;9.49;100.00;94196.88;10347085;28;20030;-76
2024/03/05 16:26:09;;;;;;;1999.90;999.90;;;;;;;9.48;100.00;94205.22;10345523;28;20054;-75
2024/03/05 16:31:09;;;;;;;1999.90;999.90;;;;;;;9.57;100.00;94212.38;10362938;28;20022;-75
2024/03/05 16:36:10;;;;;;;1999.90;999.90;;;;;;;9.48;100.00;94227.47;10346151;28;20398;-79
2024/03/05 16:41:10;;;;;;;1999.90;999.90;;;;;;;9.63;100.00;94229.25;10345107;28;20033;-75
2024/03/05 16:46:11;;;;;;;1999.90;999.90;;;;;;;9.67;100.00;94229.47;10344726;28;20041;-80
2024/03/05 16:51:12;;;;;;;1999.90;999.90;;;;;;;9.72;100.00;94235.59;10345046;28;20029;-75
2024/03/05 16:56:13;;;;;;;1999.90;999.90;;;;;;;9.65;100.00;94232.44;10363157;28;20369;-76
2024/03/05 17:01:16;;;;;;;1999.90;999.90;;;;;;;9.77;100.00;94242.00;10361810;28;20113;-77
2024/03/05 17:06:19;;;;;;;1999.90;999.90;;;;;;;9.53;100.00;94245.41;10362660;28;20032;-76
2024/03/05 17:11:22;;;;;;;1999.90;999.90;;;;;;;9.56;100.00;94252.91;10342168;28;20452;-81
2024/03/05 17:16:23;;;;;;;1999.90;999.90;;;;;;;9.39;100.00;94261.31;10347913;28;20137;-81
2024/03/05 17:21:24;;;;;;;1999.90;999.90;;;;;;;9.32;100.00;94272.38;10352638;28;20025;-75
2024/03/05 17:26:25;;;;;;;1999.90;999.90;;;;;;;9.26;100.00;94275.34;10361520;28;20525;-80
2024/03/05 17:31:26;;;;;;;1999.90;999.90;;;;;;;9.18;100.00;94284.75;10361209;28;20442;-73
2024/03/05 17:36:26;;;;;;;1999.90;999.90;;;;;;;8.86;100.00;94288.63;10344278;28;20039;-77
2024/03/05 17:41:26;;;;;;;1999.90;999.90;;;;;;;8.95;100.00;94289.66;10361005;28;20046;-74
2024/03/05 17:46:27;;;;;;;1999.90;999.90;;;;;;;8.89;100.00;94294.25;10343405;28;20509;-74
2024/03/05 17:51:27;;;;;;;1999.90;999.90;;;;;;;8.77;100.00;94298.31;10361272;28;20412;-74
2024/03/05 17:56:30;;;;;;;1999.90;999.90;;;;;;;8.77;100.00;94306.34;10361317;28;20790;-75
2024/03/05 18:01:31;;;;;;;1999.90;999.90;;;;;;;8.75;100.00;94308.47;10360519;28;20034;-80
2024/03/05 18:06:31;;;;;;;1999.90;999.90;;;;;;;8.66;100.00;94314.38;10359614;28;20046;-82
2024/03/05 18:11:32;;;;;;;1999.90;999.90;;;;;;;8.70;100.00;94314.66;10319719;23;20054;-76
2024/03/05 18:16:32;;;;;;;1999.90;999.90;;;;;;;8.56;100.00;94322.47;10321798;28;20104;-75
2024/03/05 18:21:37;;;;;;;1999.90;999.90;;;;;;;8.51;100.00;94328.63;10350413;28;20856;-76
2024/03/05 18:26:37;;;;;;;1999.90;999.90;;;;;;;8.48;100.00;94328.34;10350234;28;20049;-77
2024/03/05 18:31:38;;;;;;;1999.90;999.90;;;;;;;8.33;100.00;94329.13;10350660;28;20108;-77
2024/03/05 18:36:38;;;;;;;1999.90;999.90;;;;;;;8.25;100.00;94338.53;10350856;28;20038;-77
2024/03/05 18:41:38;;;;;;;1999.90;999.90;;;;;;;8.06;100.00;94342.78;10350299;28;20694;-76
2024/03/05 18:46:39;;;;;;;1999.90;999.90;;;;;;;7.54;100.00;94350.72;10350009;28;20092;-75
2024/03/05 18:51:40;;;;;;;1999.90;999.90;;;;;;;7.34;100.00;94341.59;10350269;28;20065;-77
2024/03/05 18:56:41;;;;;;;1999.90;999.90;;;;;;;7.17;100.00;94335.63;10350833;28;20026;-76
2024/03/05 19:01:42;;;;;;;1999.90;999.90;;;;;;;7.33;100.00;94349.88;10350688;28;20367;-75
2024/03/05 19:06:43;;;;;;;1999.90;999.90;;;;;;;7.39;100.00;94362.19;10348351;28;20404;-76
2024/03/05 19:11:43;;;;;;;1999.90;999.90;;;;;;;7.34;100.00;94379.00;10346909;28;20049;-76
2024/03/05 19:16:44;;;;;;;1999.90;999.90;;;;;;;7.35;100.00;94377.94;10345540;28;20119;-75
2024/03/05 19:21:45;;;;;;;1999.90;999.90;;;;;;;7.29;100.00;94384.31;10348439;28;20284;-76
2024/03/05 19:26:46;;;;;;;1999.90;999.90;;;;;;;7.28;100.00;94387.25;10345509;28;20104;-76
2024/03/05 19:31:46;;;;;;;1999.90;999.90;;;;;;;7.22;100.00;94388.31;10341816;28;20113;-76
2024/03/05 19:36:47;;;;;;;1999.90;999.90;;;;;;;7.23;100.00;94398.75;10345153;28;20032;-75
2024/03/05 19:41:47;;;;;;;1999.90;999.90;;;;;;;7.10;100.00;94396.53;10346693;28;20116;-76
2024/03/05 19:46:47;;;;;;;1999.90;999.90;;;;;;;7.09;100.00;94395.72;10345458;28;20034;-75
2024/03/05 19:51:49;;;;;;;1999.90;999.90;;;;;;;7.06;100.00;94396.25;10348039;28;20398;-76
2024/03/05 19:56:50;;;;;;;1999.90;999.90;;;;;;;6.67;100.00;94401.91;10344317;28;20370;-77
2024/03/05 20:01:50;;;;;;;1999.90;999.90;;;;;;;6.54;100.00;94405.78;10344257;28;20034;-76
2024/03/05 20:06:50;;;;;;;1999.90;999.90;;;;;;;6.50;100.00;94412.69;10346673;28;20821;-75
2024/03/05 20:11:51;;;;;;;1999.90;999.90;;;;;;;6.56;100.00;94413.53;10345627;28;20046;-76
2024/03/05 20:16:51;;;;;;;1999.90;999.90;;;;;;;6.59;100.00;94407.72;10345021;28;20033;-77
2024/03/05 20:21:52;;;;;;;1999.90;999.90;;;;;;;6.50;100.00;94410.03;10351638;28;20045;-78
2024/03/05 20:26:52;;;;;;;1999.90;999.90;;;;;;;6.50;100.00;94418.84;10352724;28;20420;-81
2024/03/05 20:31:52;;;;;;;1999.90;999.90;;;;;;;6.48;100.00;94425.50;10355444;28;20115;-81
2024/03/05 20:36:54;;;;;;;1999.90;999.90;;;;;;;6.47;100.00;94422.03;10349791;28;20037;-80
2024/03/05 20:41:54;;;;;;;1999.90;999.90;;;;;;;6.49;100.00;94424.47;10358933;28;20033;-79
2024/03/05 20:46:55;;;;;;;1999.90;999.90;;;;;;;6.29;100.00;94425.06;10342820;28;20037;-87
2024/03/05 20:51:56;;;;;;;1999.90;999.90;;;;;;;6.15;100.00;94425.50;10344172;28;20420;-84
2024/03/05 20:56:57;;;;;;;1999.90;999.90;;;;;;;5.82;100.00;94435.28;10348104;28;20036;-83
2024/03/05 21:01:58;;;;;;;1999.90;999.90;;;;;;;5.70;100.00;94423.13;10344592;28;20080;-80
2024/03/05 21:06:58;;;;;;;1999.90;999.90;;;;;;;5.66;100.00;94430.81;10340196;28;20367;-79
2024/03/05 21:12:00;;;;;;;1999.90;999.90;;;;;;;5.81;100.00;94436.31;10347952;28;20042;-82
2024/03/05 21:17:02;;;;;;;1999.90;999.90;;;;;;;5.94;100.00;94437.78;10339930;28;20308;-78
2024/03/05 21:22:02;;;;;;;1999.90;999.90;;;;;;;6.04;100.00;94445.16;10358821;28;20040;-87
2024/03/05 21:27:04;;;;;;;1999.90;999.90;;;;;;;6.01;100.00;94442.16;10339508;28;20036;-76
2024/03/05 21:32:04;;;;;;;1999.90;999.90;;;;;;;6.05;100.00;94445.94;10340295;28;20663;-81
2024/03/05 21:37:06;;;;;;;1999.90;999.90;;;;;;;6.04;100.00;94445.16;10343537;28;20453;-81
2024/03/05 21:42:07;;;;;;;1999.90;999.90;;;;;;;6.01;100.00;94453.63;10342321;28;20080;-83
2024/03/05 21:47:07;;;;;;;1999.90;999.90;;;;;;;6.03;100.00;94448.84;10342827;28;20061;-74
2024/03/05 21:52:08;;;;;;;1999.90;999.90;;;;;;;5.96;100.00;94462.34;10337318;28;20109;-76
2024/03/05 21:57:08;;;;;;;1999.90;999.90;;;;;;;5.86;100.00;94459.59;10333394;28;20049;-77
2024/03/05 22:02:08;;;;;;;1999.90;999.90;;;;;;;5.92;100.00;94465.78;10330404;28;20040;-77
2024/03/05 22:07:09;;;;;;;1999.90;999.90;;;;;;;5.94;100.00;94458.31;10305621;28;20041;-78